FAUP

Pierre Van Ryneveld Airport

Upington, South Africa
METAR FAUP 190500Z 23008KT 9999 SCT020 10/06 Q1022 NOSIG
Observed Flight Rules
Sep-19 @ 05:00 UTC (29 minutes ago) Visual Flight Rules
Wind Visibility Clouds
230° at 8 knots 10,000+ meters
  • Scattered at 2,000' AGL
Temperatures Readings
Current 10°C / 50°F
Dewpoint 6°C / 43°F
Humidity 76%
Altimeter 30.18" Hg
Pressure 1022 hPa
Elevation 836
METAR FAUP 190500Z 23008KT 9999 SCT020 10/06 Q1022 NOSIG
Observed Flight Rules
Sep-19 @ 05:00 UTC
(29 minutes ago)
VFR
Wind Visibility
230° at 8 knots 10,000+ meters
Clouds
  • Scattered at 2,000' AGL
Temperature Dewpoint
10°C / 50°F 6°C / 43°F
Humidity Altimeter Pressure
76% 30.18" Hg 1022 hPa